Weather at Solwesi Airport

Public forecast

Using degrees Celsius for public forecast. Weather courtesy of forecast.io.

Closest aviation weather report (METAR) to Solwesi Airport

Report is more than 2 hours old.

Closest report is Lubumbashi International Airport, 76.9 nm (142.4 km) ENE.

2024/04/23 06:00 (retrieved 5 hours ago)

FZQA 230600Z 12010KT CAVOK 21/17 Q1020 NOSIG

Closest aviation forecast (TAF) to Solwesi Airport

Closest forecast is Lubumbashi International Airport, 76.9 nm (142.4 km) ENE.

2024/04/23 06:00 (retrieved 5 hours ago)

TAF FZQA 230500Z 2306/2412 16006KT CAVOK BECMG 2308/2310 09014KT SCT022 BECMG 2314/2316 18008KT CAVOK BECMG 2406/2408 10012KT